Time;durP1;ratioP1;P1;durP2;ratioP2;P2;SDS_P1;SDS_P2;PMS_P1;PMS_P2;Temp;Humidity;BMP_temperature;BMP_pressure;BME280_temperature;BME280_humidity;BME280_pressure;Samples;Min_cycle;Max_cycle;Signal;HPM_P1;HPM_P2
2021/05/07 00:01:08;;;;;;;5.55;2.53;;;14.60;99.90;;;;;;5070257;28;20610;-69
2021/05/07 00:03:35;;;;;;;5.93;3.17;;;14.50;99.90;;;;;;5070040;28;20209;-69
2021/05/07 00:06:04;;;;;;;4.82;2.85;;;14.50;99.90;;;;;;5069587;28;20644;-76
2021/05/07 00:08:32;;;;;;;6.38;3.15;;;14.40;99.90;;;;;;5070430;28;20210;-72
2021/05/07 00:11:03;;;;;;;6.30;3.17;;;14.40;99.90;;;;;;5069844;28;20210;-71
2021/05/07 00:13:30;;;;;;;4.63;3.20;;;14.40;99.90;;;;;;5069812;28;20275;-71
2021/05/07 00:15:57;;;;;;;5.07;3.50;;;14.40;99.90;;;;;;5070134;28;20207;-69
2021/05/07 00:18:23;;;;;;;8.27;4.32;;;14.40;99.90;;;;;;5070321;28;20206;-71
2021/05/07 00:20:50;;;;;;;8.20;3.88;;;14.30;99.90;;;;;;5069683;28;20629;-71
2021/05/07 00:23:16;;;;;;;5.32;3.22;;;14.40;99.90;;;;;;5070161;28;20734;-72
2021/05/07 00:25:44;;;;;;;8.98;4.22;;;14.30;99.90;;;;;;5069394;28;20603;-71
2021/05/07 00:28:12;;;;;;;5.65;3.35;;;14.30;99.90;;;;;;5071187;28;20206;-71
2021/05/07 00:30:39;;;;;;;10.35;4.22;;;14.20;99.90;;;;;;5073383;28;20206;-70
2021/05/07 00:33:07;;;;;;;7.55;3.88;;;14.20;99.90;;;;;;5072956;28;20207;-70
2021/05/07 00:35:34;;;;;;;9.07;4.55;;;14.30;99.90;;;;;;5072964;28;20198;-71
2021/05/07 00:38:01;;;;;;;4.30;3.17;;;14.20;99.90;;;;;;5073494;28;20218;-71
2021/05/07 00:40:27;;;;;;;8.18;4.68;;;14.30;99.90;;;;;;5073605;28;20202;-72
2021/05/07 00:42:54;;;;;;;6.55;3.72;;;14.30;99.90;;;;;;5073370;28;20210;-73
2021/05/07 00:45:22;;;;;;;5.82;3.38;;;14.20;99.90;;;;;;5073145;28;20256;-71
2021/05/07 00:47:54;;;;;;;9.00;4.35;;;14.20;99.90;;;;;;5072884;28;20241;-73
2021/05/07 00:50:21;;;;;;;9.48;4.38;;;14.20;99.90;;;;;;5072938;28;20214;-71
2021/05/07 00:52:48;;;;;;;10.77;4.22;;;14.30;99.90;;;;;;5072933;28;20292;-71
2021/05/07 00:55:14;;;;;;;8.20;3.83;;;14.30;99.90;;;;;;5073141;28;20214;-72
2021/05/07 00:57:41;;;;;;;7.75;4.55;;;14.20;99.90;;;;;;5073101;28;20217;-71
2021/05/07 01:00:09;;;;;;;7.72;3.70;;;14.30;99.90;;;;;;5073166;28;20209;-71
2021/05/07 01:02:36;;;;;;;6.80;3.67;;;14.20;99.90;;;;;;5072656;28;20209;-72
2021/05/07 01:05:03;;;;;;;10.18;3.65;;;14.20;99.90;;;;;;5072904;28;20578;-74
2021/05/07 01:07:30;;;;;;;7.63;3.90;;;14.20;99.90;;;;;;5072428;28;20229;-74
2021/05/07 01:09:56;;;;;;;10.70;4.45;;;14.10;99.90;;;;;;5073182;28;20263;-73
2021/05/07 01:12:24;;;;;;;8.65;3.83;;;14.10;99.90;;;;;;5072822;28;20217;-74
2021/05/07 01:15:01;;;;;;;6.05;3.58;;;14.10;99.90;;;;;;5072550;28;20238;-73
2021/05/07 01:17:28;;;;;;;6.20;3.38;;;14.10;99.90;;;;;;5072507;28;20688;-73
2021/05/07 01:19:55;;;;;;;6.10;3.35;;;14.10;99.90;;;;;;5072606;28;20206;-74
2021/05/07 01:22:22;;;;;;;5.90;3.83;;;14.00;99.90;;;;;;5072903;28;20637;-76
2021/05/07 01:24:49;;;;;;;7.90;3.90;;;14.10;99.90;;;;;;5072139;28;20244;-73
2021/05/07 01:27:16;;;;;;;7.60;4.07;;;14.10;99.90;;;;;;5072600;28;20234;-76
2021/05/07 01:29:42;;;;;;;9.32;3.53;;;14.00;99.90;;;;;;5071721;28;20217;-72
2021/05/07 01:32:09;;;;;;;11.75;4.13;;;14.00;99.90;;;;;;5072429;28;20210;-73
2021/05/07 01:34:35;;;;;;;7.97;3.58;;;14.00;99.90;;;;;;5071892;28;20712;-73
2021/05/07 01:37:01;;;;;;;3.60;2.90;;;13.90;99.90;;;;;;5072150;28;20662;-73
2021/05/07 01:39:29;;;;;;;7.53;3.38;;;13.90;99.90;;;;;;5072088;28;20256;-72
2021/05/07 01:41:55;;;;;;;6.15;3.00;;;13.90;99.90;;;;;;5072347;28;20214;-71
2021/05/07 01:44:22;;;;;;;3.78;2.60;;;13.90;99.90;;;;;;5072003;28;20206;-71
2021/05/07 01:46:48;;;;;;;7.05;2.67;;;13.90;99.90;;;;;;5071524;28;20234;-71
2021/05/07 01:49:16;;;;;;;9.27;2.78;;;13.90;99.90;;;;;;5071978;28;20284;-72
2021/05/07 01:51:42;;;;;;;5.20;2.65;;;13.90;99.90;;;;;;5072015;28;20209;-73
2021/05/07 01:54:09;;;;;;;7.13;3.05;;;13.80;99.90;;;;;;5072038;28;20206;-75
2021/05/07 01:56:36;;;;;;;3.97;2.85;;;13.90;99.90;;;;;;5071817;28;20210;-72
2021/05/07 01:59:03;;;;;;;5.78;3.17;;;13.80;99.90;;;;;;5071659;28;20210;-72
2021/05/07 02:01:30;;;;;;;7.80;2.95;;;13.90;99.90;;;;;;5072110;28;20202;-72
2021/05/07 02:03:56;;;;;;;6.35;3.03;;;13.90;99.90;;;;;;5071547;28;20213;-70
2021/05/07 02:06:23;;;;;;;4.80;2.90;;;13.90;99.90;;;;;;5072290;28;20764;-71
2021/05/07 02:08:49;;;;;;;5.15;2.97;;;14.00;99.90;;;;;;5071167;28;20210;-70
2021/05/07 02:11:16;;;;;;;6.25;2.85;;;13.90;99.90;;;;;;5071806;28;20202;-72
2021/05/07 02:13:43;;;;;;;4.85;2.80;;;14.00;99.90;;;;;;5071279;28;20213;-71
2021/05/07 02:16:11;;;;;;;7.07;3.90;;;13.90;99.90;;;;;;5071197;28;20660;-76
2021/05/07 02:18:37;;;;;;;3.30;3.00;;;14.00;99.90;;;;;;5071262;28;20253;-71
2021/05/07 02:21:04;;;;;;;9.52;3.53;;;13.90;99.90;;;;;;5071450;28;20210;-71
2021/05/07 02:23:31;;;;;;;7.43;2.65;;;13.80;99.90;;;;;;5071287;28;20210;-70
2021/05/07 02:25:57;;;;;;;5.97;3.17;;;13.90;99.90;;;;;;5071465;28;20256;-70
2021/05/07 02:28:24;;;;;;;3.85;2.40;;;13.90;99.90;;;;;;5071746;28;20202;-70
2021/05/07 02:30:51;;;;;;;4.72;2.95;;;13.80;99.90;;;;;;5061921;28;20661;-69
2021/05/07 02:33:18;;;;;;;5.15;2.42;;;13.80;99.90;;;;;;5070853;28;20213;-71
2021/05/07 02:35:44;;;;;;;6.43;2.30;;;13.90;99.90;;;;;;5070866;28;20579;-77
2021/05/07 02:38:11;;;;;;;3.97;2.42;;;13.80;99.90;;;;;;5071219;28;20642;-74
2021/05/07 02:40:37;;;;;;;6.68;2.53;;;13.80;99.90;;;;;;5070632;28;20233;-70
2021/05/07 02:43:04;;;;;;;4.07;2.20;;;13.80;99.90;;;;;;5070754;28;20582;-70
2021/05/07 02:45:30;;;;;;;7.55;2.58;;;13.80;99.90;;;;;;5070981;28;20665;-70
2021/05/07 02:47:57;;;;;;;3.67;2.30;;;13.70;99.90;;;;;;5070826;28;20306;-75
2021/05/07 02:50:24;;;;;;;6.05;2.42;;;13.80;99.90;;;;;;5070979;28;20206;-71
2021/05/07 02:52:50;;;;;;;5.03;2.45;;;13.70;99.90;;;;;;5070224;28;20214;-71
2021/05/07 02:55:17;;;;;;;2.08;1.67;;;13.80;99.90;;;;;;5070286;28;21147;-71
2021/05/07 02:57:43;;;;;;;5.78;2.40;;;13.80;99.90;;;;;;5070345;28;20585;-71
2021/05/07 03:00:11;;;;;;;3.65;2.42;;;13.90;99.90;;;;;;5070366;28;20682;-70
2021/05/07 03:02:37;;;;;;;6.05;3.25;;;13.70;99.90;;;;;;5070790;28;20614;-70
2021/05/07 03:05:06;;;;;;;6.88;3.03;;;13.70;99.90;;;;;;5070521;28;20606;-72
2021/05/07 03:07:32;;;;;;;5.90;2.83;;;13.70;99.90;;;;;;5070247;28;20301;-71
2021/05/07 03:09:59;;;;;;;7.50;3.00;;;13.70;99.90;;;;;;5070366;28;20636;-71
2021/05/07 03:12:25;;;;;;;4.97;3.17;;;13.60;99.90;;;;;;5070538;28;20252;-71
2021/05/07 03:14:52;;;;;;;6.45;2.45;;;13.70;99.90;;;;;;5070168;28;20213;-70
2021/05/07 03:17:18;;;;;;;4.38;2.28;;;13.70;99.90;;;;;;5070578;28;20206;-70
2021/05/07 03:19:45;;;;;;;7.80;3.47;;;13.60;99.90;;;;;;5070095;28;20202;-69
2021/05/07 03:22:12;;;;;;;7.13;2.55;;;13.60;99.90;;;;;;5070543;28;20209;-70
2021/05/07 03:24:38;;;;;;;4.63;2.70;;;13.60;99.90;;;;;;5069854;28;20218;-69
2021/05/07 03:27:05;;;;;;;4.22;2.97;;;13.60;99.90;;;;;;5070459;28;20234;-70
2021/05/07 03:29:32;;;;;;;4.55;2.65;;;13.60;99.90;;;;;;5070520;28;20210;-70
2021/05/07 03:31:58;;;;;;;6.13;3.40;;;13.70;99.90;;;;;;5070572;28;20215;-71
2021/05/07 03:34:25;;;;;;;4.65;2.92;;;13.70;99.90;;;;;;5070690;28;20209;-69
2021/05/07 03:36:51;;;;;;;5.68;2.78;;;13.80;99.90;;;;;;5070156;28;20260;-69
2021/05/07 03:39:18;;;;;;;8.10;2.90;;;13.70;99.90;;;;;;5070128;28;20210;-71
2021/05/07 03:41:45;;;;;;;3.10;2.20;;;13.70;99.90;;;;;;5069906;28;20255;-70
2021/05/07 03:44:11;;;;;;;4.65;3.53;;;13.60;99.90;;;;;;5070511;28;20210;-73
2021/05/07 03:46:38;;;;;;;3.00;2.10;;;13.70;99.90;;;;;;5070055;28;20226;-74
2021/05/07 03:49:04;;;;;;;2.88;2.20;;;13.70;99.90;;;;;;5070585;28;20206;-72
2021/05/07 03:51:31;;;;;;;7.82;2.25;;;13.60;99.90;;;;;;5069798;28;20210;-72
2021/05/07 03:53:57;;;;;;;6.00;2.40;;;13.50;99.90;;;;;;5070248;28;20205;-70
2021/05/07 03:56:24;;;;;;;3.25;2.25;;;13.50;99.90;;;;;;5070028;28;20661;-70
2021/05/07 03:58:51;;;;;;;4.28;2.58;;;13.50;99.90;;;;;;5070271;28;20210;-71
2021/05/07 04:01:17;;;;;;;6.15;2.55;;;13.60;99.90;;;;;;5070372;28;20267;-72
2021/05/07 04:03:44;;;;;;;3.05;2.00;;;13.60;99.90;;;;;;5074001;28;20202;-72
2021/05/07 04:06:16;;;;;;;5.82;2.08;;;13.60;99.90;;;;;;5074069;28;20213;-73
2021/05/07 04:08:43;;;;;;;3.17;1.98;;;13.50;99.90;;;;;;5073195;28;20237;-71
2021/05/07 04:11:17;;;;;;;3.40;1.75;;;13.60;99.90;;;;;;5074253;28;20218;-70
2021/05/07 04:13:46;;;;;;;4.85;2.30;;;13.60;99.90;;;;;;5073336;28;20583;-71
2021/05/07 04:16:12;;;;;;;3.90;1.88;;;13.60;99.90;;;;;;5074169;28;20205;-71
2021/05/07 04:18:39;;;;;;;5.10;2.47;;;13.60;99.90;;;;;;5073253;28;20209;-70
2021/05/07 04:21:05;;;;;;;2.70;1.30;;;13.60;99.90;;;;;;5073844;28;20206;-69
2021/05/07 04:23:32;;;;;;;2.45;1.63;;;13.60;99.90;;;;;;5072790;28;20213;-68
2021/05/07 04:26:00;;;;;;;2.20;2.08;;;13.50;99.90;;;;;;5073748;28;20202;-69
2021/05/07 04:28:26;;;;;;;5.75;2.22;;;13.60;99.90;;;;;;5074335;28;20273;-71
2021/05/07 04:30:54;;;;;;;3.38;1.55;;;13.60;99.90;;;;;;5073508;28;20203;-71
2021/05/07 04:33:20;;;;;;;4.15;1.92;;;13.60;99.90;;;;;;5073637;28;20268;-68
2021/05/07 04:35:47;;;;;;;2.78;1.77;;;13.60;99.90;;;;;;5072926;28;20202;-70
2021/05/07 04:38:13;;;;;;;2.25;1.63;;;13.60;99.90;;;;;;5072980;28;20617;-69
2021/05/07 04:40:40;;;;;;;3.13;2.03;;;13.50;99.90;;;;;;5073171;28;20696;-70
2021/05/07 04:43:06;;;;;;;2.38;1.30;;;13.60;99.90;;;;;;5073341;28;20206;-69
2021/05/07 04:45:33;;;;;;;1.88;1.13;;;13.60;99.90;;;;;;5072820;28;20558;-70
2021/05/07 04:48:01;;;;;;;2.95;1.58;;;13.50;99.90;;;;;;5073137;28;20233;-69
2021/05/07 04:50:28;;;;;;;1.27;1.17;;;13.60;99.90;;;;;;5073271;28;20574;-70
2021/05/07 04:52:55;;;;;;;1.98;1.10;;;13.60;99.90;;;;;;5072603;28;20214;-70
2021/05/07 04:55:21;;;;;;;1.70;1.60;;;13.60;99.90;;;;;;5072365;28;20738;-72
2021/05/07 04:57:49;;;;;;;2.92;1.60;;;13.90;99.90;;;;;;5072664;28;20684;-71
2021/05/07 05:00:16;;;;;;;2.15;1.60;;;13.90;99.90;;;;;;5072952;28;20245;-72
2021/05/07 05:02:42;;;;;;;2.22;1.35;;;13.70;99.90;;;;;;5072538;28;20210;-73
2021/05/07 05:05:12;;;;;;;1.92;1.48;;;13.70;99.90;;;;;;5072300;28;20209;-72
2021/05/07 05:07:38;;;;;;;2.80;1.50;;;13.70;99.90;;;;;;5072263;28;20754;-72
2021/05/07 05:10:05;;;;;;;3.80;1.65;;;13.90;99.90;;;;;;5072664;28;20754;-72
2021/05/07 05:12:32;;;;;;;2.47;1.83;;;13.80;99.90;;;;;;5072490;28;20674;-72
2021/05/07 05:14:58;;;;;;;1.40;1.30;;;13.70;99.90;;;;;;5072043;28;20747;-72
2021/05/07 05:17:25;;;;;;;2.40;2.20;;;13.70;99.90;;;;;;5073020;28;20244;-72
2021/05/07 05:19:51;;;;;;;2.20;2.00;;;13.70;99.90;;;;;;5071289;28;20704;-72
2021/05/07 05:22:18;;;;;;;3.55;2.33;;;13.70;99.90;;;;;;5071763;28;20225;-69
2021/05/07 05:24:45;;;;;;;4.22;2.88;;;13.70;99.90;;;;;;5071733;28;20271;-69
2021/05/07 05:27:12;;;;;;;2.72;2.03;;;13.70;99.90;;;;;;5071099;28;20222;-77
2021/05/07 05:29:38;;;;;;;2.63;2.40;;;13.80;99.90;;;;;;5071824;28;20210;-70
2021/05/07 05:32:05;;;;;;;5.35;2.50;;;13.70;99.90;;;;;;5071396;28;20206;-71
2021/05/07 05:34:32;;;;;;;3.22;2.33;;;13.70;99.90;;;;;;5071164;28;20202;-69
2021/05/07 05:36:58;;;;;;;3.08;2.30;;;13.80;99.90;;;;;;5071898;28;20256;-69
2021/05/07 05:39:26;;;;;;;3.15;2.40;;;13.80;99.90;;;;;;5071620;28;20207;-70
2021/05/07 05:41:52;;;;;;;2.88;2.35;;;13.80;99.90;;;;;;5071512;28;20202;-70
2021/05/07 05:44:18;;;;;;;10.55;2.53;;;13.90;99.90;;;;;;5071338;28;20202;-69
2021/05/07 05:46:45;;;;;;;7.43;2.75;;;13.90;99.90;;;;;;5070724;28;20229;-71
2021/05/07 05:49:11;;;;;;;4.90;2.33;;;13.90;99.90;;;;;;5070872;28;20578;-70
2021/05/07 05:51:38;;;;;;;5.82;2.53;;;14.10;99.90;;;;;;5071437;28;20674;-69
2021/05/07 05:54:05;;;;;;;3.25;2.95;;;14.00;99.90;;;;;;5071518;28;20288;-69
2021/05/07 05:56:33;;;;;;;3.33;2.17;;;14.00;99.90;;;;;;5070740;28;20644;-68
2021/05/07 05:58:59;;;;;;;3.72;2.15;;;14.00;99.90;;;;;;5071943;28;20202;-70
2021/05/07 06:01:26;;;;;;;3.58;1.77;;;14.00;99.90;;;;;;5071730;28;20210;-69
2021/05/07 06:03:52;;;;;;;5.78;2.47;;;13.90;99.90;;;;;;5071282;28;20673;-68
2021/05/07 06:06:19;;;;;;;2.50;2.30;;;14.00;99.90;;;;;;5071676;28;20623;-69
2021/05/07 06:08:45;;;;;;;3.85;3.17;;;13.90;99.90;;;;;;5071264;28;20202;-69
2021/05/07 06:11:11;;;;;;;4.60;2.85;;;14.00;99.90;;;;;;5071864;28;20210;-74
2021/05/07 06:13:39;;;;;;;4.07;2.90;;;14.00;99.90;;;;;;5070966;28;20206;-69
2021/05/07 06:16:05;;;;;;;6.15;2.58;;;14.00;99.90;;;;;;5071890;28;20202;-74
2021/05/07 06:18:32;;;;;;;7.85;2.85;;;14.10;99.90;;;;;;5070656;28;20700;-69
2021/05/07 06:20:59;;;;;;;9.15;2.65;;;14.20;99.90;;;;;;5071721;28;20202;-73
2021/05/07 06:23:25;;;;;;;5.25;3.55;;;14.10;99.90;;;;;;5071477;28;20673;-73
2021/05/07 06:25:52;;;;;;;4.25;3.38;;;14.10;99.90;;;;;;5070271;28;20214;-70
2021/05/07 06:28:18;;;;;;;7.82;4.00;;;14.10;99.90;;;;;;5070992;28;20613;-71
2021/05/07 06:30:46;;;;;;;4.78;2.42;;;14.10;99.90;;;;;;5070950;28;20213;-75
2021/05/07 06:33:12;;;;;;;5.38;3.30;;;14.10;99.90;;;;;;5069972;28;20198;-69
2021/05/07 06:35:39;;;;;;;6.97;3.58;;;14.20;99.90;;;;;;5070184;28;20580;-70
2021/05/07 06:38:08;;;;;;;6.88;3.83;;;14.20;99.90;;;;;;5070533;28;20206;-74
2021/05/07 06:40:35;;;;;;;4.13;3.25;;;14.40;99.90;;;;;;5070942;28;20263;-74
2021/05/07 06:43:01;;;;;;;5.18;3.08;;;14.70;99.90;;;;;;5070735;28;20207;-70
2021/05/07 06:45:28;;;;;;;4.95;3.20;;;14.80;99.90;;;;;;5071075;28;20207;-71
2021/05/07 06:47:55;;;;;;;6.63;3.67;;;15.10;99.90;;;;;;5070492;28;20287;-72
2021/05/07 06:50:22;;;;;;;7.75;2.97;;;15.30;99.90;;;;;;5070920;28;20214;-69
2021/05/07 06:52:48;;;;;;;4.68;3.20;;;15.30;99.90;;;;;;5070641;28;20263;-69
2021/05/07 06:55:15;;;;;;;3.45;2.88;;;15.30;99.90;;;;;;5070555;28;20209;-73
2021/05/07 06:57:41;;;;;;;7.32;3.00;;;15.10;99.90;;;;;;5070440;28;20317;-71
2021/05/07 07:00:10;;;;;;;3.88;2.80;;;15.10;99.90;;;;;;5066353;28;20260;-71
2021/05/07 07:02:37;;;;;;;8.73;3.83;;;15.30;99.90;;;;;;5060165;28;20206;-71
2021/05/07 07:05:05;;;;;;;6.95;3.55;;;15.40;99.90;;;;;;5067243;28;20579;-72
2021/05/07 07:07:34;;;;;;;7.05;3.63;;;15.20;99.90;;;;;;5068575;28;20250;-70
2021/05/07 07:10:00;;;;;;;6.55;3.13;;;15.10;99.90;;;;;;5066583;28;20212;-73
2021/05/07 07:12:27;;;;;;;7.25;2.75;;;15.10;99.90;;;;;;5070939;28;20202;-71
2021/05/07 07:14:53;;;;;;;3.65;2.10;;;15.10;99.90;;;;;;5070158;28;20206;-72
2021/05/07 07:17:19;;;;;;;5.40;2.85;;;15.30;99.90;;;;;;5069193;28;20237;-72
2021/05/07 07:19:46;;;;;;;3.20;2.25;;;15.50;99.90;;;;;;5066361;28;20203;-72
2021/05/07 07:22:13;;;;;;;7.18;3.25;;;15.60;99.90;;;;;;5069007;28;20202;-73
2021/05/07 07:24:40;;;;;;;2.55;2.03;;;15.70;99.90;;;;;;5069216;28;20210;-72
2021/05/07 07:27:07;;;;;;;1.70;1.60;;;15.50;99.90;;;;;;5069312;28;20218;-73
2021/05/07 07:29:33;;;;;;;6.85;2.30;;;15.50;99.90;;;;;;5067281;28;20199;-73
2021/05/07 07:31:59;;;;;;;4.10;3.28;;;15.50;99.90;;;;;;5063117;28;20218;-73
2021/05/07 07:34:26;;;;;;;4.78;2.72;;;15.50;99.90;;;;;;5070409;28;20198;-74
2021/05/07 07:36:53;;;;;;;2.30;2.03;;;15.50;99.90;;;;;;5068955;28;20212;-73
2021/05/07 07:39:20;;;;;;;3.00;1.92;;;15.50;99.90;;;;;;5069850;28;20202;-74
2021/05/07 07:41:47;;;;;;;5.00;2.05;;;15.50;99.90;;;;;;5069548;28;20213;-74
2021/05/07 07:44:14;;;;;;;4.78;2.25;;;15.60;99.90;;;;;;5070033;28;20209;-74
2021/05/07 07:46:40;;;;;;;2.30;1.67;;;15.80;99.90;;;;;;5069292;28;20206;-75
2021/05/07 07:49:07;;;;;;;2.92;2.63;;;15.70;99.90;;;;;;5070152;28;20206;-75
2021/05/07 07:51:34;;;;;;;10.90;2.08;;;15.60;99.90;;;;;;5069877;28;20280;-74
2021/05/07 07:54:03;;;;;;;4.35;2.08;;;15.50;99.90;;;;;;5070142;28;20214;-75
2021/05/07 07:56:30;;;;;;;2.33;1.67;;;15.40;99.90;;;;;;5070237;28;20210;-74
2021/05/07 07:58:57;;;;;;;5.03;1.98;;;15.60;99.90;;;;;;5070498;28;20737;-73
2021/05/07 08:01:23;;;;;;;2.90;2.17;;;15.70;99.90;;;;;;5070019;28;20206;-74
2021/05/07 08:03:50;;;;;;;2.53;2.20;;;16.00;99.90;;;;;;5070031;28;20543;-74
2021/05/07 08:06:16;;;;;;;4.15;2.33;;;15.90;99.90;;;;;;5070164;28;20624;-74
2021/05/07 08:08:43;;;;;;;2.08;1.88;;;15.80;99.90;;;;;;5069798;28;20233;-74
2021/05/07 08:11:09;;;;;;;3.83;2.60;;;15.70;99.90;;;;;;5070332;28;20578;-74
2021/05/07 08:13:37;;;;;;;2.30;1.63;;;15.70;99.90;;;;;;5069592;28;20209;-74
2021/05/07 08:16:04;;;;;;;5.10;1.95;;;15.60;99.90;;;;;;5070034;28;20202;-73
2021/05/07 08:18:30;;;;;;;5.63;2.00;;;15.50;99.90;;;;;;5069724;28;20209;-75
2021/05/07 08:20:57;;;;;;;3.58;1.60;;;15.50;99.90;;;;;;5070243;28;20582;-74
2021/05/07 08:23:23;;;;;;;4.18;1.70;;;15.70;99.90;;;;;;5070247;28;20264;-73
2021/05/07 08:25:50;;;;;;;1.90;1.70;;;15.70;99.90;;;;;;5069709;28;20209;-74
2021/05/07 08:28:16;;;;;;;2.72;1.98;;;15.80;99.90;;;;;;5061306;28;20287;-76
2021/05/07 08:30:44;;;;;;;2.22;1.52;;;15.90;99.90;;;;;;5057378;28;20203;-81
2021/05/07 08:33:10;;;;;;;4.32;1.73;;;15.90;99.90;;;;;;5059030;28;20264;-76
2021/05/07 08:35:37;;;;;;;3.72;2.38;;;16.00;99.90;;;;;;5066347;28;20297;-77
2021/05/07 08:38:03;;;;;;;3.70;2.25;;;16.10;99.90;;;;;;5059149;28;20665;-79
2021/05/07 08:40:30;;;;;;;3.85;2.08;;;16.20;99.90;;;;;;5069628;28;20198;-75
2021/05/07 08:42:58;;;;;;;3.38;2.40;;;16.10;99.90;;;;;;5069944;28;20225;-73
2021/05/07 08:45:24;;;;;;;4.70;2.80;;;16.20;99.90;;;;;;5060902;28;20198;-77
2021/05/07 08:47:55;;;;;;;3.05;2.47;;;16.30;99.90;;;;;;5053254;28;20718;-76
2021/05/07 08:50:21;;;;;;;2.53;1.70;;;16.30;99.90;;;;;;5071214;28;20240;-75
2021/05/07 08:52:48;;;;;;;3.35;1.38;;;16.60;99.90;;;;;;5072372;28;20209;-74
2021/05/07 08:55:15;;;;;;;2.08;1.88;;;16.50;99.90;;;;;;5072977;28;20678;-75
2021/05/07 08:57:42;;;;;;;4.53;1.52;;;16.50;99.90;;;;;;5072194;28;20215;-74
2021/05/07 09:00:10;;;;;;;3.70;1.88;;;16.00;99.90;;;;;;5064107;28;20214;-74
2021/05/07 09:02:37;;;;;;;1.75;1.27;;;15.70;99.90;;;;;;5060815;28;20206;-71
2021/05/07 09:05:05;;;;;;;2.05;0.98;;;15.40;99.90;;;;;;5071961;28;20202;-74
2021/05/07 09:07:33;;;;;;;1.55;0.70;;;15.00;99.90;;;;;;5063673;28;20603;-77
2021/05/07 09:10:02;;;;;;;0.75;0.50;;;15.10;99.90;;;;;;5058918;28;20210;-77
2021/05/07 09:12:33;;;;;;;0.70;0.60;;;15.20;99.90;;;;;;5068796;28;20199;-76
2021/05/07 09:15:00;;;;;;;1.33;1.23;;;15.40;99.90;;;;;;5071896;28;20221;-77
2021/05/07 09:17:28;;;;;;;0.47;0.47;;;15.50;99.90;;;;;;5063760;28;20202;-77
2021/05/07 09:20:10;;;;;;;1.15;0.90;;;15.80;99.90;;;;;;5073026;28;20210;-77
2021/05/07 09:22:37;;;;;;;1.30;0.55;;;16.00;99.90;;;;;;5071617;28;20213;-79
2021/05/07 09:25:07;;;;;;;0.65;0.60;;;16.10;99.90;;;;;;5072506;28;20607;-76
2021/05/07 09:27:33;;;;;;;0.75;0.75;;;16.10;99.90;;;;;;5071595;28;20230;-79
2021/05/07 09:30:00;;;;;;;1.77;1.25;;;16.30;99.90;;;;;;5072470;28;20214;-78
2021/05/07 09:32:30;;;;;;;3.38;0.75;;;16.70;99.90;;;;;;5072651;28;20275;-77
2021/05/07 09:35:09;;;;;;;1.20;0.70;;;16.60;99.90;;;;;;5068287;28;20208;-74
2021/05/07 09:37:35;;;;;;;0.57;0.50;;;16.50;99.90;;;;;;5070753;28;20217;-74
2021/05/07 09:40:13;;;;;;;0.95;0.70;;;16.60;99.90;;;;;;5069792;28;20214;-73
2021/05/07 09:42:40;;;;;;;0.60;0.60;;;16.70;99.90;;;;;;5066632;28;20202;-72
2021/05/07 09:45:17;;;;;;;1.05;0.70;;;16.50;99.90;;;;;;5072273;28;20206;-72
2021/05/07 09:47:44;;;;;;;0.57;0.57;;;16.50;99.90;;;;;;5066492;28;20240;-71
2021/05/07 09:50:12;;;;;;;1.88;1.00;;;16.60;99.90;;;;;;5072213;28;20202;-72
2021/05/07 09:52:39;;;;;;;4.43;4.13;;;16.80;99.90;;;;;;5071865;28;20210;-74
2021/05/07 09:55:07;;;;;;;6.03;5.53;;;16.70;99.90;;;;;;5071066;28;20670;-72
2021/05/07 09:57:35;;;;;;;1.10;1.00;;;16.90;99.90;;;;;;5064470;28;20238;-76
2021/05/07 10:00:03;;;;;;;0.95;0.70;;;17.10;99.90;;;;;;5062961;28;20202;-75
2021/05/07 10:02:30;;;;;;;1.17;1.08;;;16.90;99.90;;;;;;5066696;28;20210;-73
2021/05/07 10:04:58;;;;;;;1.08;0.52;;;16.60;99.90;;;;;;5072180;28;20206;-72
2021/05/07 10:07:27;;;;;;;0.63;0.60;;;16.30;99.90;;;;;;5065652;28;20283;-75
2021/05/07 10:10:02;;;;;;;0.80;0.60;;;16.30;99.90;;;;;;5069057;28;20202;-70
2021/05/07 10:12:29;;;;;;;2.28;2.08;;;16.50;99.90;;;;;;5067184;28;20589;-74
2021/05/07 10:14:56;;;;;;;0.63;0.57;;;16.60;99.90;;;;;;5071723;28;20202;-69
2021/05/07 10:17:22;;;;;;;0.60;0.60;;;16.40;99.90;;;;;;5064779;28;20207;-70
2021/05/07 10:19:50;;;;;;;0.82;0.60;;;16.30;99.90;;;;;;5063605;28;20206;-70
2021/05/07 10:22:18;;;;;;;2.25;1.15;;;16.20;99.90;;;;;;5067250;28;20635;-70
2021/05/07 10:24:46;;;;;;;2.47;2.38;;;16.10;99.90;;;;;;5063601;28;20302;-70
2021/05/07 10:27:17;;;;;;;1.83;1.30;;;15.90;99.90;;;;;;5069788;28;20226;-70
2021/05/07 10:29:57;;;;;;;1.33;1.23;;;16.00;99.90;;;;;;5065147;28;20207;-71
2021/05/07 10:32:35;;;;;;;1.25;1.02;;;15.80;99.90;;;;;;5059543;28;20210;-70
2021/05/07 10:35:03;;;;;;;2.47;1.95;;;15.80;99.90;;;;;;5055952;28;20267;-71
2021/05/07 10:37:39;;;;;;;8.43;2.67;;;15.90;99.90;;;;;;5062752;28;20206;-71
2021/05/07 10:40:09;;;;;;;2.63;1.17;;;16.00;99.90;;;;;;5051175;28;20279;-72
2021/05/07 10:42:35;;;;;;;0.95;0.60;;;16.00;99.90;;;;;;5055225;28;20259;-73
2021/05/07 10:45:02;;;;;;;1.77;1.13;;;16.20;99.90;;;;;;5064672;28;20594;-74
2021/05/07 10:47:33;;;;;;;0.50;0.50;;;16.50;99.90;;;;;;5061365;28;20222;-73
2021/05/07 10:49:59;;;;;;;1.35;0.73;;;16.70;99.90;;;;;;5062281;28;20251;-75
2021/05/07 10:52:39;;;;;;;0.60;0.60;;;16.40;99.90;;;;;;5059291;28;20658;-73
2021/05/07 10:55:09;;;;;;;1.00;0.88;;;16.60;99.90;;;;;;5063590;28;22008;-73
2021/05/07 10:57:38;;;;;;;0.60;0.60;;;16.70;99.90;;;;;;5056450;28;20214;-73
2021/05/07 11:00:08;;;;;;;0.82;0.57;;;16.40;99.90;;;;;;5059073;28;20285;-75
2021/05/07 11:02:45;;;;;;;0.70;0.50;;;16.20;99.90;;;;;;5061052;28;20206;-73
2021/05/07 11:05:12;;;;;;;0.55;0.55;;;16.30;99.90;;;;;;5069684;28;20198;-74
2021/05/07 11:07:51;;;;;;;0.40;0.40;;;16.30;99.90;;;;;;5070368;28;20237;-74
2021/05/07 11:10:27;;;;;;;1.42;0.90;;;16.20;99.90;;;;;;5064806;28;20287;-74
2021/05/07 11:12:54;;;;;;;1.08;0.77;;;16.00;99.90;;;;;;5069842;28;20745;-73
2021/05/07 11:15:21;;;;;;;0.52;0.50;;;16.00;99.90;;;;;;5069686;28;20205;-73
2021/05/07 11:17:58;;;;;;;0.73;0.73;;;16.40;99.90;;;;;;5058878;28;20210;-73
2021/05/07 11:20:32;;;;;;;1.10;0.88;;;16.60;99.90;;;;;;5062029;28;20197;-73
2021/05/07 11:22:59;;;;;;;1.58;0.93;;;16.50;99.90;;;;;;5068283;28;20263;-73
2021/05/07 11:25:29;;;;;;;1.63;0.70;;;16.40;99.90;;;;;;5059804;28;20215;-71
2021/05/07 11:27:55;;;;;;;1.35;0.80;;;16.30;99.90;;;;;;5061401;28;20234;-71
2021/05/07 11:30:23;;;;;;;0.70;0.70;;;16.20;99.90;;;;;;5061212;28;20202;-73
2021/05/07 11:32:50;;;;;;;2.05;1.70;;;16.30;99.90;;;;;;5058716;28;20197;-73
2021/05/07 11:35:18;;;;;;;1.65;0.85;;;16.50;99.90;;;;;;5064590;28;20271;-72
2021/05/07 11:37:44;;;;;;;1.30;1.17;;;16.40;99.90;;;;;;5069655;28;20271;-72
2021/05/07 11:40:14;;;;;;;1.63;1.08;;;16.60;99.90;;;;;;5065436;28;20209;-72
2021/05/07 11:42:43;;;;;;;1.00;1.00;;;16.60;99.90;;;;;;5069766;28;20259;-73
2021/05/07 11:45:12;;;;;;;0.95;0.95;;;16.70;99.90;;;;;;5070272;28;20206;-73
2021/05/07 11:47:40;;;;;;;1.05;0.95;;;16.80;99.90;;;;;;5069763;28;20229;-72
2021/05/07 11:50:07;;;;;;;1.45;0.95;;;16.70;99.90;;;;;;5063105;28;20206;-74
2021/05/07 11:52:39;;;;;;;0.60;0.60;;;16.60;99.90;;;;;;5057220;28;20202;-72
2021/05/07 11:55:08;;;;;;;1.63;0.77;;;16.70;99.90;;;;;;5065062;28;20685;-73
2021/05/07 11:57:34;;;;;;;1.10;0.77;;;16.70;99.90;;;;;;5061932;28;20217;-76
2021/05/07 12:00:02;;;;;;;1.95;1.10;;;16.60;99.90;;;;;;5062302;28;20202;-74
2021/05/07 12:02:30;;;;;;;3.78;0.80;;;16.70;99.90;;;;;;5064176;28;20218;-71
2021/05/07 12:04:57;;;;;;;2.00;0.60;;;16.60;99.90;;;;;;5056258;28;20255;-72
2021/05/07 12:07:26;;;;;;;0.55;0.55;;;16.50;99.90;;;;;;5059334;28;20287;-71
2021/05/07 12:09:53;;;;;;;0.68;0.65;;;16.40;99.90;;;;;;5067658;28;20255;-71
2021/05/07 12:12:20;;;;;;;0.70;0.70;;;16.60;99.90;;;;;;5058233;28;20217;-72
2021/05/07 12:14:49;;;;;;;2.63;0.90;;;16.70;99.90;;;;;;5066773;28;20542;-70
2021/05/07 12:17:17;;;;;;;1.42;1.00;;;16.70;99.90;;;;;;5069687;28;20214;-75
2021/05/07 12:19:44;;;;;;;0.55;0.55;;;16.90;99.90;;;;;;5069675;28;20264;-74
2021/05/07 12:22:20;;;;;;;0.95;0.88;;;17.30;99.90;;;;;;5057736;28;20210;-71
2021/05/07 12:24:47;;;;;;;0.88;0.80;;;17.70;99.90;;;;;;5056984;28;20214;-74
2021/05/07 12:27:13;;;;;;;0.90;0.60;;;18.00;99.90;;;;;;5072199;28;20654;-71
2021/05/07 12:29:40;;;;;;;0.80;0.80;;;17.90;99.90;;;;;;5073395;28;20209;-72
2021/05/07 12:32:08;;;;;;;2.70;0.90;;;17.80;99.90;;;;;;5073405;28;20217;-71
2021/05/07 12:34:36;;;;;;;0.57;0.57;;;17.70;99.90;;;;;;5073055;28;20238;-71
2021/05/07 12:37:03;;;;;;;0.80;0.80;;;17.60;99.90;;;;;;5072869;28;20210;-72
2021/05/07 12:39:34;;;;;;;0.60;0.60;;;17.50;99.90;;;;;;5058853;28;20206;-70
2021/05/07 12:42:00;;;;;;;1.40;0.57;;;17.30;99.90;;;;;;5063980;28;20237;-70
2021/05/07 12:44:27;;;;;;;0.82;0.80;;;17.20;99.90;;;;;;5058263;28;20268;-70
2021/05/07 12:46:55;;;;;;;0.88;0.52;;;17.30;99.90;;;;;;5067312;28;20203;-71